Bittern — V7SR7 — position and weather

sailwx.info

Track history (hours):
 
Tides and Currents Weather Stations Pressure Air Temp Water Temp Dewpoint Dewpoint Depression Visibility Wind Speed Wind Dir Waves Ship Positions

Bittern

Last reported at 2017-Dec-27 01:11 UTC. Time now 2018-Feb-21 07:01 UTC.
Position N 35°58' W 005°35'.
Warning: this ship's position is 56 days out of date.

Length 189 m; draft 9.8 m.

Type: Cargo ship. MMSI: 538003710.

Date/timePositionNaut miles runAvg speedWind from/ knotsBaromVisibWave heightAir tempDewpointWater temp
2017-Dec-27 01:11N 35°58' W 005°35'1 6.8
2017-Dec-27 01:00N 35°58' W 005°34'3 6.4
2017-Dec-27 00:29N 35°59' W 005°30'3 6.7
2017-Dec-27 00:00N 36°01' W 005°26'4 8.4
2017-Dec-26 23:30N 36°04' W 005°23'1 0.1
2017-Dec-26 07:45N 36°05' W 005°22'1 3.4
2017-Dec-26 07:27N 36°05' W 005°21'1 1.3
2017-Dec-26 07:00N 36°05' W 005°20'3 6.9
2017-Dec-26 06:30N 36°04' W 005°16'5 9.1
2017-Dec-26 06:00N 36°04' W 005°11'2 1.1
2017-Dec-26 04:15N 36°05' W 005°08'0 1.2
2017-Dec-26 04:00N 36°05' W 005°09'1 1.2
2017-Dec-26 03:30N 36°06' W 005°09'1 1.2
2017-Dec-26 03:00N 36°06' W 005°10'1 1.4
2017-Dec-26 02:30N 36°07' W 005°10'1 1.4
2017-Dec-26 01:44N 36°08' W 005°10'0 1.3
2017-Dec-26 01:29N 36°08' W 005°11'1 1.3
2017-Dec-26 01:00N 36°09' W 005°11'0 0.8
2017-Dec-26 00:30N 36°09' W 005°11'3 4.1
2017-Dec-25 23:53N 36°07' W 005°10'3 2.1
2017-Dec-25 22:30N 36°04' W 005°08'1 1.7
2017-Dec-25 21:50N 36°05' W 005°09'1 1.5
2017-Dec-25 21:26N 36°05' W 005°10'1 1.5
2017-Dec-25 21:00N 36°06' W 005°11'2 0.5
2017-Dec-25 17:42N 36°05' W 005°09'0 1.1
2017-Dec-25 17:30N 36°05' W 005°09'1 1.0
2017-Dec-25 17:00N 36°06' W 005°09'0 1.0
2017-Dec-25 16:30N 36°06' W 005°10'1 0.9
2017-Dec-25 15:51N 36°06' W 005°10'0 0.8
2017-Dec-25 15:27N 36°07' W 005°11'0 0.6
2017-Dec-25 15:00N 36°07' W 005°11'  
2017-Dec-21 19:05N 36°33' E 014°07'410.6
2017-Dec-21 18:44N 36°31' E 014°11'310.7
2017-Dec-21 18:29N 36°30' E 014°14'510.6
2017-Dec-21 18:00N 36°28' E 014°20'510.6
2017-Dec-21 17:30N 36°26' E 014°26'510.6
2017-Dec-21 17:00N 36°24' E 014°32'510.2
2017-Dec-21 16:30N 36°22' E 014°38'6 9.9
2017-Dec-21 15:51N 36°20' E 014°45'4 9.6
2017-Dec-21 15:28N 36°18' E 014°50'44010.9
2017-Dec-19 23:09N 36°04' E 023°54'511.5
2017-Dec-19 22:44N 36°04' E 024°00'311.5
2017-Dec-19 22:29N 36°04' E 024°04'511.1
2017-Dec-19 22:00N 36°04' E 024°10'510.9
2017-Dec-19 21:30N 36°04' E 024°17'510.9
2017-Dec-19 21:00N 36°04' E 024°24'511.0
2017-Dec-19 20:30N 36°04' E 024°31'611.0
2017-Dec-19 20:00N 36°05' E 024°37'611.2
2017-Dec-19 19:30N 36°05' E 024°44'510.8
2017-Dec-19 19:00N 36°05' E 024°51'510.6
2017-Dec-19 18:30N 36°05' E 024°58'510.8
2017-Dec-19 18:00N 36°05' E 025°04'510.9
2017-Dec-19 17:30N 36°06' E 025°11'510.9
2017-Dec-19 17:00N 36°06' E 025°18'510.9
2017-Dec-19 16:30N 36°06' E 025°25'510.7
2017-Dec-19 16:00N 36°06' E 025°31'510.6
2017-Dec-19 15:30N 36°06' E 025°38'510.7
2017-Dec-19 15:00N 36°07' E 025°44'511.0
2017-Dec-19 14:30N 36°07' E 025°51'510.8
2017-Dec-19 14:00N 36°07' E 025°58'511.0
2017-Dec-19 13:30N 36°07' E 026°05'510.6
2017-Dec-19 13:00N 36°07' E 026°11'510.7
2017-Dec-19 12:30N 36°07' E 026°18'511.0
2017-Dec-19 12:00N 36°07' E 026°25'510.7
2017-Dec-19 11:30N 36°07' E 026°31'510.5
2017-Dec-19 11:00N 36°06' E 026°38'  
Track history (hours):
 
Tides and Currents Weather Stations Pressure Air Temp Water Temp Dewpoint Dewpoint Depression Visibility Wind Speed Wind Dir Waves Ship Positions

Bittern

Last reported at 2017-Dec-27 01:11 UTC. Time now 2018-Feb-21 07:01 UTC.
Position N 35°58' W 005°35'.
Warning: this ship's position is 56 days out of date.

Length 189 m; draft 9.8 m.

Type: Cargo ship. MMSI: 538003710.

Date/timePositionNaut miles runAvg speedWind from/ knotsBaromVisibWave heightAir tempDewpointWater temp
2017-Dec-27 01:11N 35°58' W 005°35'1 6.8
2017-Dec-27 01:00N 35°58' W 005°34'3 6.4
2017-Dec-27 00:29N 35°59' W 005°30'3 6.7
2017-Dec-27 00:00N 36°01' W 005°26'4 8.4
2017-Dec-26 23:30N 36°04' W 005°23'1 0.1
2017-Dec-26 07:45N 36°05' W 005°22'1 3.4
2017-Dec-26 07:27N 36°05' W 005°21'1 1.3
2017-Dec-26 07:00N 36°05' W 005°20'3 6.9
2017-Dec-26 06:30N 36°04' W 005°16'5 9.1
2017-Dec-26 06:00N 36°04' W 005°11'2 1.1
2017-Dec-26 04:15N 36°05' W 005°08'0 1.2
2017-Dec-26 04:00N 36°05' W 005°09'1 1.2
2017-Dec-26 03:30N 36°06' W 005°09'1 1.2
2017-Dec-26 03:00N 36°06' W 005°10'1 1.4
2017-Dec-26 02:30N 36°07' W 005°10'1 1.4
2017-Dec-26 01:44N 36°08' W 005°10'0 1.3
2017-Dec-26 01:29N 36°08' W 005°11'1 1.3
2017-Dec-26 01:00N 36°09' W 005°11'0 0.8
2017-Dec-26 00:30N 36°09' W 005°11'3 4.1
2017-Dec-25 23:53N 36°07' W 005°10'3 2.1
2017-Dec-25 22:30N 36°04' W 005°08'1 1.7
2017-Dec-25 21:50N 36°05' W 005°09'1 1.5
2017-Dec-25 21:26N 36°05' W 005°10'1 1.5
2017-Dec-25 21:00N 36°06' W 005°11'2 0.5
2017-Dec-25 17:42N 36°05' W 005°09'0 1.1
2017-Dec-25 17:30N 36°05' W 005°09'1 1.0
2017-Dec-25 17:00N 36°06' W 005°09'0 1.0
2017-Dec-25 16:30N 36°06' W 005°10'1 0.9
2017-Dec-25 15:51N 36°06' W 005°10'0 0.8
2017-Dec-25 15:27N 36°07' W 005°11'0 0.6
2017-Dec-25 15:00N 36°07' W 005°11'  
2017-Dec-21 19:05N 36°33' E 014°07'410.6
2017-Dec-21 18:44N 36°31' E 014°11'310.7
2017-Dec-21 18:29N 36°30' E 014°14'510.6
2017-Dec-21 18:00N 36°28' E 014°20'510.6
2017-Dec-21 17:30N 36°26' E 014°26'510.6
2017-Dec-21 17:00N 36°24' E 014°32'510.2
2017-Dec-21 16:30N 36°22' E 014°38'6 9.9
2017-Dec-21 15:51N 36°20' E 014°45'4 9.6
2017-Dec-21 15:28N 36°18' E 014°50'44010.9
2017-Dec-19 23:09N 36°04' E 023°54'511.5
2017-Dec-19 22:44N 36°04' E 024°00'311.5
2017-Dec-19 22:29N 36°04' E 024°04'511.1
2017-Dec-19 22:00N 36°04' E 024°10'510.9
2017-Dec-19 21:30N 36°04' E 024°17'510.9
2017-Dec-19 21:00N 36°04' E 024°24'511.0
2017-Dec-19 20:30N 36°04' E 024°31'611.0
2017-Dec-19 20:00N 36°05' E 024°37'611.2
2017-Dec-19 19:30N 36°05' E 024°44'510.8
2017-Dec-19 19:00N 36°05' E 024°51'510.6
2017-Dec-19 18:30N 36°05' E 024°58'510.8
2017-Dec-19 18:00N 36°05' E 025°04'510.9
2017-Dec-19 17:30N 36°06' E 025°11'510.9
2017-Dec-19 17:00N 36°06' E 025°18'510.9
2017-Dec-19 16:30N 36°06' E 025°25'510.7
2017-Dec-19 16:00N 36°06' E 025°31'510.6
2017-Dec-19 15:30N 36°06' E 025°38'510.7
2017-Dec-19 15:00N 36°07' E 025°44'511.0
2017-Dec-19 14:30N 36°07' E 025°51'510.8
2017-Dec-19 14:00N 36°07' E 025°58'511.0
2017-Dec-19 13:30N 36°07' E 026°05'510.6
2017-Dec-19 13:00N 36°07' E 026°11'510.7
2017-Dec-19 12:30N 36°07' E 026°18'511.0
2017-Dec-19 12:00N 36°07' E 026°25'510.7
2017-Dec-19 11:30N 36°07' E 026°31'510.5
2017-Dec-19 11:00N 36°06' E 026°38'  

Dump ship's entire track history